createdAt,value
2018-09-01T00:00:19.770Z,10.73
2018-09-01T00:02:48.283Z,8.00
2018-09-01T00:05:16.905Z,10.90
2018-09-01T00:07:45.369Z,9.33
2018-09-01T00:10:13.997Z,12.50
2018-09-01T00:12:43.676Z,9.23
2018-09-01T00:15:12.204Z,9.27
2018-09-01T00:17:40.649Z,9.23
2018-09-01T00:20:09.333Z,8.10
2018-09-01T00:22:38.522Z,7.67
2018-09-01T00:25:07.145Z,6.97
2018-09-01T00:27:35.684Z,7.00
2018-09-01T00:30:04.237Z,8.53
2018-09-01T00:32:32.689Z,7.10
2018-09-01T00:35:01.439Z,9.40
2018-09-01T00:37:35.081Z,6.40
2018-09-01T00:40:03.781Z,5.30
2018-09-01T00:42:32.678Z,7.73
2018-09-01T00:45:01.176Z,6.27
2018-09-01T00:47:29.877Z,10.83
2018-09-01T00:49:58.363Z,5.53
2018-09-01T00:52:26.834Z,7.20
2018-09-01T00:54:55.685Z,6.40
2018-09-01T00:57:24.110Z,11.17
2018-09-01T00:59:53.106Z,9.63
2018-09-01T01:02:21.909Z,9.23
2018-09-01T01:04:50.381Z,7.20
2018-09-01T01:07:18.849Z,6.73
2018-09-01T01:09:47.385Z,9.50
2018-09-01T01:12:15.890Z,7.17
2018-09-01T01:14:44.627Z,6.30
2018-09-01T01:17:13.522Z,5.30
2018-09-01T01:19:42.073Z,9.43
2018-09-01T01:22:10.666Z,6.50
2018-09-01T01:24:39.545Z,7.43
2018-09-01T01:27:07.982Z,4.93
2018-09-01T01:29:36.429Z,6.93
2018-09-01T01:32:05.055Z,6.17
2018-09-01T01:34:33.494Z,9.93
2018-09-01T01:37:01.983Z,8.73
2018-09-01T01:39:30.445Z,7.20
2018-09-01T01:41:58.982Z,8.87
2018-09-01T01:44:27.547Z,6.80
2018-09-01T01:46:56.386Z,4.97
2018-09-01T01:49:24.835Z,7.60
2018-09-01T01:51:53.457Z,9.20
2018-09-01T01:54:21.916Z,9.30
2018-09-01T01:56:50.926Z,8.80
2018-09-01T01:59:19.471Z,9.13
2018-09-01T02:01:48.208Z,7.43
2018-09-01T02:04:16.640Z,7.90
2018-09-01T02:06:45.148Z,4.07
2018-09-01T02:09:13.949Z,10.57
2018-09-01T02:11:42.421Z,8.97
2018-09-01T02:14:10.934Z,7.23
2018-09-01T02:16:39.574Z,9.80
2018-09-01T02:19:08.193Z,9.13
2018-09-01T02:21:36.661Z,9.00
2018-09-01T02:24:05.529Z,11.20
2018-09-01T02:26:33.982Z,6.70
2018-09-01T02:29:02.468Z,6.87
2018-09-01T02:31:31.002Z,7.63
2018-09-01T02:33:59.446Z,7.53
2018-09-01T02:36:28.006Z,7.70
2018-09-01T02:38:56.600Z,7.07
2018-09-01T02:41:25.059Z,7.93
2018-09-01T02:43:53.528Z,8.27
2018-09-01T02:46:22.066Z,6.37
2018-09-01T02:48:50.523Z,10.33
2018-09-01T02:51:19.717Z,10.77
2018-09-01T02:53:49.120Z,8.90
2018-09-01T02:56:17.553Z,6.67
2018-09-01T02:58:46.056Z,8.63
2018-09-01T03:01:19.784Z,9.90
2018-09-01T03:03:48.665Z,10.23
2018-09-01T03:06:17.157Z,11.40
2018-09-01T03:08:45.586Z,6.33
2018-09-01T03:11:14.377Z,6.47
2018-09-01T03:13:42.865Z,8.90
2018-09-01T03:16:11.321Z,7.73
2018-09-01T03:18:40.735Z,10.90
2018-09-01T03:21:09.161Z,8.67
2018-09-01T03:23:37.617Z,8.87
2018-09-01T03:26:06.301Z,10.17
2018-09-01T03:28:34.737Z,8.57
2018-09-01T03:31:03.160Z,8.83
2018-09-01T03:33:31.853Z,10.60
2018-09-01T03:36:00.306Z,8.27
2018-09-01T03:38:28.763Z,10.43
2018-09-01T03:40:57.605Z,13.73
2018-09-01T03:43:26.066Z,7.83
2018-09-01T03:45:54.557Z,7.47
2018-09-01T03:48:23.771Z,7.33
2018-09-01T03:50:52.193Z,7.43
2018-09-01T03:53:20.759Z,9.63
2018-09-01T03:55:55.703Z,8.07
2018-09-01T03:58:24.385Z,7.73
2018-09-01T04:00:52.867Z,10.27
2018-09-01T04:03:21.902Z,10.50
2018-09-01T04:05:50.397Z,10.77
2018-09-01T04:08:18.837Z,10.07
2018-09-01T04:10:47.427Z,11.67
2018-09-01T04:13:16.339Z,8.60
2018-09-01T04:15:44.777Z,10.20
2018-09-01T04:18:13.698Z,11.20
2018-09-01T04:20:42.856Z,9.50
2018-09-01T04:23:11.305Z,6.47
2018-09-01T04:25:39.982Z,9.00
2018-09-01T04:28:08.530Z,10.37
2018-09-01T04:30:36.957Z,10.90
2018-09-01T04:33:05.778Z,9.80
2018-09-01T04:35:34.207Z,10.07
2018-09-01T04:38:02.706Z,11.97
2018-09-01T04:40:31.309Z,10.07
2018-09-01T04:42:59.728Z,10.57
2018-09-01T04:45:28.178Z,10.23
2018-09-01T04:47:57.019Z,12.57
2018-09-01T04:50:25.826Z,11.83
2018-09-01T04:52:54.331Z,10.57
2018-09-01T04:55:23.057Z,9.83
2018-09-01T04:57:51.490Z,9.07
2018-09-01T05:00:21.618Z,14.33
2018-09-01T05:02:52.185Z,12.33
2018-09-01T05:05:20.963Z,13.27
2018-09-01T05:07:49.673Z,9.87
2018-09-01T05:10:18.921Z,12.57
2018-09-01T05:12:48.101Z,7.37
2018-09-01T05:15:16.563Z,8.53
2018-09-01T05:17:45.533Z,9.87
2018-09-01T05:20:14.113Z,9.50
2018-09-01T05:22:42.598Z,14.87
2018-09-01T05:25:11.263Z,9.90
2018-09-01T05:27:39.697Z,11.00
2018-09-01T05:30:09.113Z,10.20
2018-09-01T05:32:37.593Z,9.75
2018-09-01T05:35:06.270Z,12.55
2018-09-01T05:37:34.771Z,13.23
2018-09-01T05:40:03.341Z,13.20
2018-09-01T05:42:32.037Z,12.82
2018-09-01T05:45:00.465Z,13.28
2018-09-01T05:47:29.118Z,14.23
2018-09-01T05:49:57.569Z,8.20
2018-09-01T05:52:26.166Z,10.05
2018-09-01T05:54:55.237Z,10.77
2018-09-01T05:57:23.667Z,11.18
2018-09-01T05:59:52.102Z,9.70
2018-09-01T06:02:20.989Z,10.78
2018-09-01T06:04:49.901Z,12.80
2018-09-01T06:07:18.433Z,13.32
2018-09-01T06:09:47.077Z,10.85
2018-09-01T06:12:15.603Z,11.53
2018-09-01T06:14:44.052Z,12.73
2018-09-01T06:17:12.973Z,11.90
2018-09-01T06:19:41.516Z,14.38
2018-09-01T06:22:09.965Z,12.80
2018-09-01T06:24:38.705Z,11.78
2018-09-01T06:27:11.293Z,10.63
2018-09-01T06:29:40.014Z,11.57
2018-09-01T06:32:09.354Z,9.90
2018-09-01T06:34:37.786Z,8.03
2018-09-01T06:37:06.790Z,11.45
2018-09-01T06:39:35.239Z,10.78
2018-09-01T06:42:03.699Z,10.72
2018-09-01T06:44:32.616Z,10.93
2018-09-01T06:47:01.069Z,9.55
2018-09-01T06:49:29.562Z,8.60
2018-09-01T06:51:58.683Z,11.48
2018-09-01T06:54:33.981Z,8.18
2018-09-01T06:57:02.981Z,8.08
2018-09-01T06:59:31.431Z,10.60
2018-09-01T07:01:59.961Z,9.75
2018-09-01T07:04:28.614Z,11.85
2018-09-01T07:06:57.225Z,8.65
2018-09-01T07:09:25.817Z,7.37
2018-09-01T07:11:54.297Z,6.70
2018-09-01T07:14:22.882Z,8.03
2018-09-01T07:16:51.369Z,7.90
2018-09-01T07:19:20.221Z,11.38
2018-09-01T07:21:50.136Z,7.33
2018-09-01T07:24:18.639Z,8.18
2018-09-01T07:26:47.131Z,7.00
2018-09-01T07:29:15.862Z,8.83
2018-09-01T07:31:44.510Z,7.47
2018-09-01T07:34:13.021Z,8.00
2018-09-01T07:36:41.585Z,9.08
2018-09-01T07:39:10.021Z,8.23
2018-09-01T07:41:38.487Z,10.13
2018-09-01T07:44:07.429Z,6.25
2018-09-01T07:46:35.860Z,6.37
2018-09-01T07:49:04.343Z,6.37
2018-09-01T07:51:32.821Z,7.58
2018-09-01T07:54:01.269Z,6.47
2018-09-01T07:56:29.918Z,6.67
2018-09-01T07:58:58.654Z,5.10
2018-09-01T08:01:27.114Z,5.15
2018-09-01T08:03:55.645Z,5.92
2018-09-01T08:06:24.402Z,6.30
2018-09-01T08:08:52.865Z,5.03
2018-09-01T08:11:22.049Z,4.42
2018-09-01T08:13:51.028Z,4.58
2018-09-01T08:16:19.730Z,4.78
2018-09-01T08:18:48.274Z,3.98
2018-09-01T08:21:16.781Z,7.62
2018-09-01T08:23:45.210Z,3.65
2018-09-01T08:26:13.738Z,3.67
2018-09-01T08:28:42.574Z,3.90
2018-09-01T08:31:11.017Z,3.42
2018-09-01T08:33:39.561Z,3.92
2018-09-01T08:36:08.313Z,5.92
2018-09-01T08:38:37.106Z,3.47
2018-09-01T08:41:05.747Z,3.05
2018-09-01T08:43:34.681Z,4.72
2018-09-01T08:46:03.117Z,5.20
2018-09-01T08:48:31.670Z,2.90
2018-09-01T08:51:00.391Z,4.28
2018-09-01T08:53:28.825Z,3.47
2018-09-01T08:55:57.350Z,4.92
2018-09-01T08:58:26.002Z,6.10
2018-09-01T09:00:55.377Z,4.40
2018-09-01T09:03:23.857Z,4.22
2018-09-01T09:05:52.774Z,3.92
2018-09-01T09:08:21.811Z,3.55
2018-09-01T09:10:50.283Z,3.83
2018-09-01T09:13:19.217Z,4.25
2018-09-01T09:15:47.652Z,3.72
2018-09-01T09:18:16.253Z,4.87
2018-09-01T09:20:44.871Z,5.33
2018-09-01T09:23:13.323Z,3.62
2018-09-01T09:25:41.829Z,3.75
2018-09-01T09:28:10.369Z,3.40
2018-09-01T09:30:38.843Z,3.45
2018-09-01T09:33:07.355Z,2.77
2018-09-01T09:35:35.938Z,6.58
2018-09-01T09:38:04.401Z,3.00
2018-09-01T09:40:32.952Z,3.02
2018-09-01T09:43:01.486Z,4.92
2018-09-01T09:45:29.985Z,5.53
2018-09-01T09:47:58.641Z,3.12
2018-09-01T09:50:27.553Z,4.05
2018-09-01T09:52:56.017Z,2.55
2018-09-01T09:55:24.486Z,2.37
2018-09-01T09:57:53.035Z,3.77
2018-09-01T10:00:26.858Z,6.08
2018-09-01T10:02:55.707Z,3.12
2018-09-01T10:05:24.141Z,3.00
2018-09-01T10:07:52.627Z,2.75
2018-09-01T10:10:21.217Z,3.10
2018-09-01T10:12:49.649Z,4.47
2018-09-01T10:15:18.613Z,2.70
2018-09-01T10:17:47.398Z,3.20
2018-09-01T10:20:15.949Z,3.37
2018-09-01T10:22:44.401Z,5.50
2018-09-01T10:25:13.001Z,3.50
2018-09-01T10:27:41.455Z,3.85
2018-09-01T10:30:10.016Z,3.15
2018-09-01T10:32:39.810Z,3.33
2018-09-01T10:35:08.317Z,3.12
2018-09-01T10:37:37.220Z,3.47
2018-09-01T10:40:06.172Z,4.95
2018-09-01T10:42:34.613Z,3.60
2018-09-01T10:45:03.130Z,5.20
2018-09-01T10:47:31.644Z,6.00
2018-09-01T10:50:00.462Z,3.00
2018-09-01T10:52:29.321Z,3.65
2018-09-01T10:54:57.832Z,4.05
2018-09-01T10:57:26.346Z,4.58
2018-09-01T10:59:54.935Z,5.12
2018-09-01T11:02:23.541Z,3.33
2018-09-01T11:04:51.986Z,3.00
2018-09-01T11:07:21.100Z,3.55
2018-09-01T11:09:49.777Z,3.02
2018-09-01T11:12:18.209Z,3.62
2018-09-01T11:14:46.781Z,3.60
2018-09-01T11:17:15.302Z,3.62
2018-09-01T11:19:43.779Z,4.95
2018-09-01T11:22:12.289Z,3.62
2018-09-01T11:24:40.982Z,3.37
2018-09-01T11:27:09.829Z,4.08
2018-09-01T11:29:38.397Z,3.00
2018-09-01T11:32:06.957Z,5.45
2018-09-01T11:34:35.485Z,2.60
2018-09-01T11:37:04.074Z,2.92
2018-09-01T11:39:32.497Z,2.55
2018-09-01T11:42:01.005Z,3.15
2018-09-01T11:44:29.869Z,2.52
2018-09-01T11:46:58.538Z,4.05
2018-09-01T11:49:26.998Z,3.05
2018-09-01T11:51:55.482Z,3.22
2018-09-01T11:54:24.288Z,4.55
2018-09-01T11:56:52.720Z,2.50
2018-09-01T11:59:21.875Z,2.72
2018-09-01T12:01:50.768Z,2.67
2018-09-01T12:04:19.285Z,2.30
2018-09-01T12:06:47.829Z,3.30
2018-09-01T12:09:16.556Z,2.87
2018-09-01T12:11:44.993Z,2.40
2018-09-01T12:14:13.590Z,2.50
2018-09-01T12:16:42.125Z,5.25
2018-09-01T12:19:10.603Z,2.02
2018-09-01T12:21:39.245Z,2.77
2018-09-01T12:24:07.915Z,3.27
2018-09-01T12:26:36.515Z,3.17
2018-09-01T12:29:05.629Z,5.17
2018-09-01T12:31:34.167Z,6.25
2018-09-01T12:34:02.629Z,4.10
2018-09-01T12:36:31.119Z,2.70
2018-09-01T12:39:00.105Z,2.85
2018-09-01T12:41:28.556Z,3.40
2018-09-01T12:43:57.040Z,2.87
2018-09-01T12:46:25.755Z,2.40
2018-09-01T12:48:54.254Z,4.37
2018-09-01T12:51:22.719Z,6.08
2018-09-01T12:53:53.134Z,3.20
2018-09-01T12:56:21.681Z,4.42
2018-09-01T12:58:50.144Z,2.65
2018-09-01T13:01:18.753Z,2.20
2018-09-01T13:03:47.217Z,2.52
2018-09-01T13:06:16.114Z,3.00
2018-09-01T13:08:44.958Z,3.55
2018-09-01T13:11:13.397Z,2.33
2018-09-01T13:13:41.884Z,3.02
2018-09-01T13:16:10.411Z,3.35
2018-09-01T13:18:38.886Z,2.15
2018-09-01T13:21:07.378Z,2.30
2018-09-01T13:23:36.119Z,2.20
2018-09-01T13:26:04.622Z,3.05
2018-09-01T13:28:33.089Z,3.65
2018-09-01T13:31:01.921Z,5.50
2018-09-01T13:33:30.446Z,2.20
2018-09-01T13:35:59.934Z,3.50
2018-09-01T13:38:29.679Z,4.65
2018-09-01T13:40:58.213Z,2.70
2018-09-01T13:43:26.729Z,2.58
2018-09-01T13:45:55.515Z,2.83
2018-09-01T13:48:23.961Z,3.85
2018-09-01T13:50:52.463Z,5.65
2018-09-01T13:53:21.090Z,2.62
2018-09-01T13:55:50.199Z,3.85
2018-09-01T13:58:18.694Z,5.22
2018-09-01T14:00:47.831Z,16.93
2018-09-01T14:03:18.415Z,2.50
2018-09-01T14:05:47.413Z,2.55
2018-09-01T14:08:16.028Z,3.22
2018-09-01T14:10:44.541Z,2.30
2018-09-01T14:13:12.977Z,2.30
2018-09-01T14:15:41.511Z,3.20
2018-09-01T14:18:10.114Z,2.08
2018-09-01T14:20:38.683Z,2.08
2018-09-01T14:23:07.568Z,2.37
2018-09-01T14:25:36.151Z,4.60
2018-09-01T14:28:04.662Z,3.42
2018-09-01T14:30:34.240Z,3.05
2018-09-01T14:33:03.018Z,6.70
2018-09-01T14:35:31.485Z,5.08
2018-09-01T14:38:00.137Z,2.58
2018-09-01T14:40:28.621Z,2.67
2018-09-01T14:42:57.091Z,5.62
2018-09-01T14:45:25.714Z,4.67
2018-09-01T14:47:54.597Z,3.37
2018-09-01T14:50:23.045Z,4.42
2018-09-01T14:52:51.557Z,5.65
2018-09-01T14:55:20.532Z,2.35
2018-09-01T14:57:49.600Z,3.15
2018-09-01T15:00:18.051Z,3.33
2018-09-01T15:02:46.706Z,3.27
2018-09-01T15:05:15.138Z,2.80
2018-09-01T15:07:43.641Z,3.15
2018-09-01T15:10:12.208Z,3.92
2018-09-01T15:12:40.694Z,4.10
2018-09-01T15:15:09.662Z,3.42
2018-09-01T15:17:38.253Z,5.12
2018-09-01T15:20:06.797Z,5.30
2018-09-01T15:22:35.317Z,4.55
2018-09-01T15:25:03.931Z,4.03
2018-09-01T15:27:32.378Z,2.77
2018-09-01T15:30:00.899Z,2.40
2018-09-01T15:32:29.673Z,5.53
2018-09-01T15:34:58.362Z,3.08
2018-09-01T15:37:27.197Z,3.92
2018-09-01T15:39:55.680Z,3.20
2018-09-01T15:42:24.113Z,2.75
2018-09-01T15:44:52.714Z,6.92
2018-09-01T15:47:22.239Z,2.35
2018-09-01T15:49:51.305Z,2.70
2018-09-01T15:52:20.230Z,3.90
2018-09-01T15:54:49.032Z,3.42
2018-09-01T15:57:17.469Z,4.03
2018-09-01T15:59:46.287Z,3.02
2018-09-01T16:02:14.781Z,2.52
2018-09-01T16:04:43.234Z,4.55
2018-09-01T16:07:11.789Z,3.47
2018-09-01T16:09:40.407Z,3.00
2018-09-01T16:12:08.928Z,4.47
2018-09-01T16:14:37.873Z,3.85
2018-09-01T16:17:06.545Z,3.92
2018-09-01T16:19:35.010Z,2.83
2018-09-01T16:22:03.885Z,3.27
2018-09-01T16:24:32.392Z,3.37
2018-09-01T16:27:00.869Z,2.55
2018-09-01T16:29:29.377Z,7.20
2018-09-01T16:31:57.833Z,7.25
2018-09-01T16:34:26.377Z,2.47
2018-09-01T16:36:55.337Z,3.12
2018-09-01T16:39:23.826Z,5.55
2018-09-01T16:41:52.416Z,2.50
2018-09-01T16:44:20.893Z,4.78
2018-09-01T16:46:49.771Z,3.20
2018-09-01T16:49:18.288Z,5.05
2018-09-01T16:51:46.797Z,6.00
2018-09-01T16:54:15.553Z,3.70
2018-09-01T16:56:44.289Z,4.30
2018-09-01T16:59:12.858Z,5.10
2018-09-01T17:01:41.373Z,2.67
2018-09-01T17:04:09.805Z,2.35
2018-09-01T17:06:38.461Z,3.42
2018-09-01T17:09:07.765Z,3.37
2018-09-01T17:11:36.358Z,3.20
2018-09-01T17:14:05.333Z,3.05
2018-09-01T17:16:33.837Z,6.50
2018-09-01T17:19:02.294Z,2.52
2018-09-01T17:21:31.065Z,2.35
2018-09-01T17:23:59.618Z,4.33
2018-09-01T17:26:28.070Z,4.45
2018-09-01T17:28:56.518Z,3.58
2018-09-01T17:31:25.125Z,3.52
2018-09-01T17:33:53.630Z,5.17
2018-09-01T17:36:22.068Z,4.92
2018-09-01T17:38:51.398Z,3.72
2018-09-01T17:41:20.577Z,3.55
2018-09-01T17:43:49.573Z,5.45
2018-09-01T17:46:18.078Z,3.72
2018-09-01T17:48:46.529Z,2.95
2018-09-01T17:51:14.998Z,3.00
2018-09-01T17:53:57.797Z,3.50
2018-09-01T17:56:26.553Z,4.15
2018-09-01T17:58:55.072Z,2.12
2018-09-01T18:01:25.257Z,4.95
2018-09-01T18:03:54.129Z,3.55
2018-09-01T18:06:22.629Z,4.60
2018-09-01T18:08:52.265Z,3.72
2018-09-01T18:11:21.409Z,3.87
2018-09-01T18:13:50.950Z,5.50
2018-09-01T18:16:20.679Z,4.08
2018-09-01T18:18:49.871Z,7.28
2018-09-01T18:21:18.345Z,3.02
2018-09-01T18:23:47.804Z,5.92
2018-09-01T18:26:16.322Z,3.70
2018-09-01T18:28:44.757Z,3.70
2018-09-01T18:31:13.349Z,5.47
2018-09-01T18:33:41.977Z,5.50
2018-09-01T18:36:10.549Z,4.92
2018-09-01T18:38:39.146Z,5.03
2018-09-01T18:41:07.952Z,3.95
2018-09-01T18:43:36.330Z,6.55
2018-09-01T18:46:05.002Z,5.70
2018-09-01T18:48:33.505Z,5.15
2018-09-01T18:51:01.957Z,5.75
2018-09-01T18:53:30.726Z,4.65
2018-09-01T18:55:59.321Z,5.17
2018-09-01T18:58:27.749Z,3.85
2018-09-01T19:00:56.237Z,6.80
2018-09-01T19:03:24.866Z,4.63
2018-09-01T19:05:53.300Z,4.10
2018-09-01T19:08:21.789Z,5.23
2018-09-01T19:10:50.233Z,4.03
2018-09-01T19:13:18.686Z,4.23
2018-09-01T19:15:47.241Z,6.03
2018-09-01T19:18:15.866Z,4.13
2018-09-01T19:20:44.301Z,5.03
2018-09-01T19:23:12.769Z,5.70
2018-09-01T19:25:41.292Z,4.50
2018-09-01T19:28:09.722Z,3.67
2018-09-01T19:30:38.186Z,8.23
2018-09-01T19:33:06.705Z,5.60
2018-09-01T19:35:35.571Z,4.03
2018-09-01T19:38:04.030Z,6.53
2018-09-01T19:40:32.592Z,4.43
2018-09-01T19:43:01.442Z,5.07
2018-09-01T19:45:30.226Z,4.20
2018-09-01T19:47:58.599Z,5.97
2018-09-01T19:50:27.069Z,6.17
2018-09-01T19:52:55.641Z,4.47
2018-09-01T19:55:24.296Z,5.97
2018-09-01T19:57:52.737Z,7.33
2018-09-01T20:00:21.929Z,8.63
2018-09-01T20:02:51.577Z,5.90
2018-09-01T20:05:20.663Z,6.17
2018-09-01T20:07:49.120Z,6.13
2018-09-01T20:10:18.037Z,6.13
2018-09-01T20:12:46.472Z,6.03
2018-09-01T20:15:14.995Z,7.30
2018-09-01T20:17:43.522Z,5.20
2018-09-01T20:20:12.081Z,7.40
2018-09-01T20:22:40.581Z,6.33
2018-09-01T20:25:09.218Z,6.07
2018-09-01T20:27:37.693Z,4.37
2018-09-01T20:30:06.469Z,5.20
2018-09-01T20:32:35.194Z,5.90
2018-09-01T20:35:08.994Z,5.67
2018-09-01T20:37:37.792Z,5.60
2018-09-01T20:40:06.565Z,6.20
2018-09-01T20:42:35.049Z,6.73
2018-09-01T20:45:04.182Z,7.23
2018-09-01T20:47:32.690Z,5.03
2018-09-01T20:50:01.153Z,4.63
2018-09-01T20:52:29.608Z,4.97
2018-09-01T20:54:58.055Z,5.47
2018-09-01T20:57:26.525Z,5.67
2018-09-01T20:59:55.037Z,7.07
2018-09-01T21:02:23.477Z,6.53
2018-09-01T21:04:51.950Z,7.63
2018-09-01T21:07:20.567Z,5.50
2018-09-01T21:09:49.806Z,8.00
2018-09-01T21:12:18.282Z,7.67
2018-09-01T21:14:46.773Z,6.63
2018-09-01T21:17:15.244Z,7.17
2018-09-01T21:19:43.765Z,5.77
2018-09-01T21:22:12.471Z,7.77
2018-09-01T21:24:40.911Z,6.57
2018-09-01T21:27:09.479Z,6.60
2018-09-01T21:29:38.006Z,8.63
2018-09-01T21:32:06.497Z,8.33
2018-09-01T21:34:41.582Z,8.50
2018-09-01T21:37:10.205Z,7.83
2018-09-01T21:39:38.744Z,7.33
2018-09-01T21:42:07.738Z,7.47
2018-09-01T21:44:36.240Z,10.13
2018-09-01T21:47:04.945Z,8.13
2018-09-01T21:49:33.759Z,8.57
2018-09-01T21:52:02.258Z,7.77
2018-09-01T21:54:30.694Z,8.80
2018-09-01T21:56:59.470Z,10.87
2018-09-01T21:59:27.941Z,14.17
2018-09-01T22:02:02.034Z,11.33
2018-09-01T22:04:35.693Z,8.30
2018-09-01T22:07:04.621Z,8.67
2018-09-01T22:09:33.066Z,9.20
2018-09-01T22:12:01.513Z,8.50
2018-09-01T22:14:30.086Z,8.37
2018-09-01T22:16:58.641Z,10.67
2018-09-01T22:19:27.078Z,8.83
2018-09-01T22:21:55.753Z,10.73
2018-09-01T22:24:24.165Z,7.30
2018-09-01T22:26:52.609Z,7.50
2018-09-01T22:29:21.763Z,7.37
2018-09-01T22:31:50.238Z,6.83
2018-09-01T22:34:18.681Z,9.33
2018-09-01T22:36:47.620Z,8.40
2018-09-01T22:39:16.178Z,8.63
2018-09-01T22:41:44.609Z,8.13
2018-09-01T22:44:13.168Z,8.93
2018-09-01T22:46:41.801Z,7.83
2018-09-01T22:49:10.365Z,9.50
2018-09-01T22:51:39.106Z,9.47
2018-09-01T22:54:07.893Z,8.37
2018-09-01T22:56:36.338Z,8.07
2018-09-01T22:59:05.173Z,8.50
2018-09-01T23:01:33.877Z,9.50
2018-09-01T23:04:02.492Z,8.03
2018-09-01T23:06:31.317Z,7.47
2018-09-01T23:09:02.597Z,9.50
2018-09-01T23:11:31.050Z,7.50
2018-09-01T23:13:59.749Z,10.27
2018-09-01T23:16:28.169Z,8.73
2018-09-01T23:18:56.633Z,9.60
2018-09-01T23:21:25.193Z,8.33
2018-09-01T23:23:53.894Z,9.00
2018-09-01T23:26:22.321Z,9.57
2018-09-01T23:28:51.017Z,8.87
2018-09-01T23:31:19.753Z,10.17
2018-09-01T23:33:48.205Z,8.93
2018-09-01T23:36:17.085Z,8.93
2018-09-01T23:38:45.549Z,11.43
2018-09-01T23:41:14.975Z,9.37
2018-09-01T23:43:43.650Z,8.03
2018-09-01T23:46:12.138Z,9.13
2018-09-01T23:48:40.581Z,9.63
2018-09-01T23:51:09.211Z,12.33
2018-09-01T23:53:37.758Z,8.40
2018-09-01T23:56:06.248Z,9.43
2018-09-01T23:58:34.880Z,9.13
